sensor_id;sensor_type;location;lat;lon;timestamp;P1;durP1;ratioP1;P2;durP2;ratioP2
76848;SDS011;65814;51.134;16.980;2023-03-05T00:00:10;6.80;;;2.60;;
76848;SDS011;65814;51.134;16.980;2023-03-05T00:02:58;4.00;;;2.50;;
76848;SDS011;65814;51.134;16.980;2023-03-05T00:05:27;4.70;;;2.70;;
76848;SDS011;65814;51.134;16.980;2023-03-05T00:07:54;6.70;;;2.70;;
76848;SDS011;65814;51.134;16.980;2023-03-05T00:10:21;6.50;;;2.60;;
76848;SDS011;65814;51.134;16.980;2023-03-05T00:12:47;9.30;;;3.50;;
76848;SDS011;65814;51.134;16.980;2023-03-05T00:15:14;7.60;;;2.50;;
76848;SDS011;65814;51.134;16.980;2023-03-05T00:17:40;8.10;;;2.90;;
76848;SDS011;65814;51.134;16.980;2023-03-05T00:20:07;9.60;;;2.80;;
76848;SDS011;65814;51.134;16.980;2023-03-05T00:25:01;8.30;;;3.70;;
76848;SDS011;65814;51.134;16.980;2023-03-05T00:27:29;6.50;;;2.60;;
76848;SDS011;65814;51.134;16.980;2023-03-05T00:29:55;6.10;;;2.80;;
76848;SDS011;65814;51.134;16.980;2023-03-05T00:32:22;7.40;;;2.50;;
76848;SDS011;65814;51.134;16.980;2023-03-05T00:34:49;7.60;;;2.80;;
76848;SDS011;65814;51.134;16.980;2023-03-05T00:37:15;7.20;;;2.60;;
76848;SDS011;65814;51.134;16.980;2023-03-05T00:39:42;9.50;;;3.00;;
76848;SDS011;65814;51.134;16.980;2023-03-05T00:42:09;7.30;;;3.40;;
76848;SDS011;65814;51.134;16.980;2023-03-05T00:44:35;6.80;;;3.00;;
76848;SDS011;65814;51.134;16.980;2023-03-05T00:49:30;6.70;;;2.60;;
76848;SDS011;65814;51.134;16.980;2023-03-05T00:51:56;6.40;;;3.40;;
76848;SDS011;65814;51.134;16.980;2023-03-05T00:54:23;7.40;;;2.70;;
76848;SDS011;65814;51.134;16.980;2023-03-05T00:56:50;7.60;;;3.20;;
76848;SDS011;65814;51.134;16.980;2023-03-05T00:59:16;8.60;;;3.50;;
76848;SDS011;65814;51.134;16.980;2023-03-05T01:01:42;7.90;;;3.50;;
76848;SDS011;65814;51.134;16.980;2023-03-05T01:04:14;8.40;;;2.70;;
76848;SDS011;65814;51.134;16.980;2023-03-05T01:06:41;8.10;;;2.80;;
76848;SDS011;65814;51.134;16.980;2023-03-05T01:09:09;8.40;;;3.10;;
76848;SDS011;65814;51.134;16.980;2023-03-05T01:11:36;7.00;;;2.90;;
76848;SDS011;65814;51.134;16.980;2023-03-05T01:14:02;6.30;;;3.00;;
76848;SDS011;65814;51.134;16.980;2023-03-05T01:16:29;7.90;;;2.90;;
76848;SDS011;65814;51.134;16.980;2023-03-05T01:21:23;6.70;;;2.80;;
76848;SDS011;65814;51.134;16.980;2023-03-05T01:23:52;8.00;;;3.00;;
76848;SDS011;65814;51.134;16.980;2023-03-05T01:26:19;5.90;;;2.70;;
76848;SDS011;65814;51.134;16.980;2023-03-05T01:28:45;7.20;;;2.90;;
76848;SDS011;65814;51.134;16.980;2023-03-05T01:31:12;10.60;;;3.40;;
76848;SDS011;65814;51.134;16.980;2023-03-05T01:33:38;7.50;;;3.00;;
76848;SDS011;65814;51.134;16.980;2023-03-05T01:36:05;9.00;;;3.80;;
76848;SDS011;65814;51.134;16.980;2023-03-05T01:38:33;6.70;;;2.80;;
76848;SDS011;65814;51.134;16.980;2023-03-05T01:41:00;9.30;;;3.90;;
76848;SDS011;65814;51.134;16.980;2023-03-05T01:43:27;7.90;;;3.40;;
76848;SDS011;65814;51.134;16.980;2023-03-05T01:54:56;9.00;;;3.60;;
76848;SDS011;65814;51.134;16.980;2023-03-05T01:57:45;10.00;;;4.20;;
76848;SDS011;65814;51.134;16.980;2023-03-05T02:00:17;11.60;;;4.10;;
76848;SDS011;65814;51.134;16.980;2023-03-05T02:02:46;13.80;;;5.50;;
76848;SDS011;65814;51.134;16.980;2023-03-05T02:05:15;10.00;;;4.20;;
76848;SDS011;65814;51.134;16.980;2023-03-05T02:07:44;12.90;;;5.60;;
76848;SDS011;65814;51.134;16.980;2023-03-05T02:10:14;11.10;;;4.70;;
76848;SDS011;65814;51.134;16.980;2023-03-05T02:12:42;15.00;;;5.40;;
76848;SDS011;65814;51.134;16.980;2023-03-05T02:15:08;11.20;;;4.80;;
76848;SDS011;65814;51.134;16.980;2023-03-05T02:20:04;14.80;;;6.10;;
76848;SDS011;65814;51.134;16.980;2023-03-05T02:22:41;14.70;;;5.30;;
76848;SDS011;65814;51.134;16.980;2023-03-05T02:27:42;15.10;;;5.60;;
76848;SDS011;65814;51.134;16.980;2023-03-05T02:30:11;10.10;;;4.40;;
76848;SDS011;65814;51.134;16.980;2023-03-05T02:32:37;17.40;;;5.80;;
76848;SDS011;65814;51.134;16.980;2023-03-05T02:35:04;14.00;;;5.70;;
76848;SDS011;65814;51.134;16.980;2023-03-05T02:39:57;15.40;;;4.90;;
76848;SDS011;65814;51.134;16.980;2023-03-05T02:42:24;11.60;;;4.90;;
76848;SDS011;65814;51.134;16.980;2023-03-05T02:44:50;11.10;;;4.00;;
76848;SDS011;65814;51.134;16.980;2023-03-05T02:47:17;9.80;;;4.60;;
76848;SDS011;65814;51.134;16.980;2023-03-05T02:49:43;9.20;;;4.00;;
76848;SDS011;65814;51.134;16.980;2023-03-05T02:52:10;7.40;;;3.40;;
76848;SDS011;65814;51.134;16.980;2023-03-05T02:54:36;10.80;;;3.10;;
76848;SDS011;65814;51.134;16.980;2023-03-05T02:57:04;5.50;;;3.00;;
76848;SDS011;65814;51.134;16.980;2023-03-05T02:59:31;5.90;;;2.10;;
76848;SDS011;65814;51.134;16.980;2023-03-05T03:01:58;11.10;;;2.80;;
76848;SDS011;65814;51.134;16.980;2023-03-05T03:04:24;5.60;;;2.50;;
76848;SDS011;65814;51.134;16.980;2023-03-05T03:06:51;5.30;;;2.50;;
76848;SDS011;65814;51.134;16.980;2023-03-05T03:09:17;4.80;;;2.10;;
76848;SDS011;65814;51.134;16.980;2023-03-05T03:11:44;8.40;;;2.50;;
76848;SDS011;65814;51.134;16.980;2023-03-05T03:14:11;4.70;;;2.60;;
76848;SDS011;65814;51.134;16.980;2023-03-05T03:16:37;3.90;;;2.00;;
76848;SDS011;65814;51.134;16.980;2023-03-05T03:19:04;6.70;;;2.70;;
76848;SDS011;65814;51.134;16.980;2023-03-05T03:21:31;3.70;;;2.20;;
76848;SDS011;65814;51.134;16.980;2023-03-05T03:23:57;3.70;;;1.70;;
76848;SDS011;65814;51.134;16.980;2023-03-05T03:26:24;4.20;;;1.80;;
76848;SDS011;65814;51.134;16.980;2023-03-05T03:31:17;4.90;;;2.20;;
76848;SDS011;65814;51.134;16.980;2023-03-05T03:33:44;6.20;;;1.80;;
76848;SDS011;65814;51.134;16.980;2023-03-05T03:36:11;8.30;;;2.50;;
76848;SDS011;65814;51.134;16.980;2023-03-05T03:38:38;4.70;;;2.20;;
76848;SDS011;65814;51.134;16.980;2023-03-05T03:41:05;4.70;;;1.70;;
76848;SDS011;65814;51.134;16.980;2023-03-05T03:43:33;6.50;;;2.10;;
76848;SDS011;65814;51.134;16.980;2023-03-05T03:46:02;4.70;;;2.00;;
76848;SDS011;65814;51.134;16.980;2023-03-05T03:48:32;8.20;;;2.30;;
76848;SDS011;65814;51.134;16.980;2023-03-05T03:50:59;4.20;;;2.40;;
76848;SDS011;65814;51.134;16.980;2023-03-05T03:53:29;4.20;;;2.50;;
76848;SDS011;65814;51.134;16.980;2023-03-05T03:55:58;6.60;;;2.50;;
76848;SDS011;65814;51.134;16.980;2023-03-05T03:58:25;10.00;;;2.40;;
76848;SDS011;65814;51.134;16.980;2023-03-05T04:00:54;5.30;;;2.30;;
76848;SDS011;65814;51.134;16.980;2023-03-05T04:03:21;7.30;;;2.60;;
76848;SDS011;65814;51.134;16.980;2023-03-05T04:05:47;4.70;;;2.70;;
76848;SDS011;65814;51.134;16.980;2023-03-05T04:08:14;5.80;;;2.50;;
76848;SDS011;65814;51.134;16.980;2023-03-05T04:10:40;8.70;;;3.30;;
76848;SDS011;65814;51.134;16.980;2023-03-05T04:13:07;3.60;;;2.00;;
76848;SDS011;65814;51.134;16.980;2023-03-05T04:15:35;8.60;;;2.50;;
76848;SDS011;65814;51.134;16.980;2023-03-05T04:18:02;5.30;;;2.90;;
76848;SDS011;65814;51.134;16.980;2023-03-05T04:20:29;7.90;;;2.70;;
76848;SDS011;65814;51.134;16.980;2023-03-05T04:22:55;4.90;;;2.70;;
76848;SDS011;65814;51.134;16.980;2023-03-05T04:25:21;10.00;;;2.50;;
76848;SDS011;65814;51.134;16.980;2023-03-05T04:27:48;10.70;;;3.10;;
76848;SDS011;65814;51.134;16.980;2023-03-05T04:30:15;7.30;;;3.00;;
76848;SDS011;65814;51.134;16.980;2023-03-05T04:32:42;7.80;;;2.80;;
76848;SDS011;65814;51.134;16.980;2023-03-05T04:35:09;8.30;;;3.40;;
76848;SDS011;65814;51.134;16.980;2023-03-05T04:37:35;8.60;;;3.20;;
76848;SDS011;65814;51.134;16.980;2023-03-05T04:40:02;6.30;;;3.20;;
76848;SDS011;65814;51.134;16.980;2023-03-05T04:42:32;9.50;;;3.30;;
76848;SDS011;65814;51.134;16.980;2023-03-05T04:44:58;6.10;;;3.60;;
76848;SDS011;65814;51.134;16.980;2023-03-05T04:47:25;7.00;;;3.10;;
76848;SDS011;65814;51.134;16.980;2023-03-05T04:49:51;6.80;;;3.40;;
76848;SDS011;65814;51.134;16.980;2023-03-05T04:52:18;10.80;;;4.10;;
76848;SDS011;65814;51.134;16.980;2023-03-05T04:54:45;11.30;;;3.90;;
76848;SDS011;65814;51.134;16.980;2023-03-05T04:57:11;9.70;;;4.10;;
76848;SDS011;65814;51.134;16.980;2023-03-05T04:59:37;10.10;;;3.60;;
76848;SDS011;65814;51.134;16.980;2023-03-05T05:02:04;11.40;;;3.50;;
76848;SDS011;65814;51.134;16.980;2023-03-05T05:04:39;7.70;;;3.50;;
76848;SDS011;65814;51.134;16.980;2023-03-05T05:07:10;12.50;;;4.00;;
76848;SDS011;65814;51.134;16.980;2023-03-05T05:09:37;8.30;;;4.30;;
76848;SDS011;65814;51.134;16.980;2023-03-05T05:12:04;6.70;;;3.30;;
76848;SDS011;65814;51.134;16.980;2023-03-05T05:14:32;10.10;;;3.10;;
76848;SDS011;65814;51.134;16.980;2023-03-05T05:16:59;6.80;;;3.20;;
76848;SDS011;65814;51.134;16.980;2023-03-05T05:19:28;6.30;;;3.10;;
76848;SDS011;65814;51.134;16.980;2023-03-05T05:21:55;6.80;;;3.60;;
76848;SDS011;65814;51.134;16.980;2023-03-05T05:24:22;9.30;;;3.60;;
76848;SDS011;65814;51.134;16.980;2023-03-05T05:26:49;5.90;;;3.20;;
76848;SDS011;65814;51.134;16.980;2023-03-05T05:29:16;7.70;;;3.10;;
76848;SDS011;65814;51.134;16.980;2023-03-05T05:31:43;11.20;;;3.40;;
76848;SDS011;65814;51.134;16.980;2023-03-05T05:34:10;4.30;;;2.50;;
76848;SDS011;65814;51.134;16.980;2023-03-05T05:36:36;9.50;;;3.20;;
76848;SDS011;65814;51.134;16.980;2023-03-05T05:39:03;7.60;;;3.30;;
76848;SDS011;65814;51.134;16.980;2023-03-05T05:41:30;6.50;;;3.10;;
76848;SDS011;65814;51.134;16.980;2023-03-05T05:43:56;6.50;;;2.80;;
76848;SDS011;65814;51.134;16.980;2023-03-05T05:46:23;5.80;;;3.00;;
76848;SDS011;65814;51.134;16.980;2023-03-05T05:48:50;10.20;;;3.10;;
76848;SDS011;65814;51.134;16.980;2023-03-05T05:51:18;7.10;;;2.70;;
76848;SDS011;65814;51.134;16.980;2023-03-05T05:53:47;7.50;;;2.90;;
76848;SDS011;65814;51.134;16.980;2023-03-05T05:56:14;5.00;;;2.40;;
76848;SDS011;65814;51.134;16.980;2023-03-05T05:58:45;8.60;;;2.90;;
76848;SDS011;65814;51.134;16.980;2023-03-05T06:01:14;9.60;;;2.90;;
76848;SDS011;65814;51.134;16.980;2023-03-05T06:03:48;9.60;;;3.50;;
76848;SDS011;65814;51.134;16.980;2023-03-05T06:06:17;10.20;;;3.90;;
76848;SDS011;65814;51.134;16.980;2023-03-05T06:08:45;8.50;;;4.10;;
76848;SDS011;65814;51.134;16.980;2023-03-05T06:11:11;10.00;;;4.40;;
76848;SDS011;65814;51.134;16.980;2023-03-05T06:13:38;12.60;;;4.60;;
76848;SDS011;65814;51.134;16.980;2023-03-05T06:16:06;9.70;;;4.70;;
76848;SDS011;65814;51.134;16.980;2023-03-05T06:18:34;13.30;;;4.80;;
76848;SDS011;65814;51.134;16.980;2023-03-05T06:21:05;13.20;;;5.90;;
76848;SDS011;65814;51.134;16.980;2023-03-05T06:23:33;13.50;;;6.10;;
76848;SDS011;65814;51.134;16.980;2023-03-05T06:26:00;17.40;;;7.40;;
76848;SDS011;65814;51.134;16.980;2023-03-05T06:28:28;18.30;;;6.00;;
76848;SDS011;65814;51.134;16.980;2023-03-05T06:31:37;18.50;;;7.50;;
76848;SDS011;65814;51.134;16.980;2023-03-05T06:33:49;16.50;;;7.50;;
76848;SDS011;65814;51.134;16.980;2023-03-05T06:36:16;19.90;;;8.00;;
76848;SDS011;65814;51.134;16.980;2023-03-05T06:38:45;15.70;;;6.50;;
76848;SDS011;65814;51.134;16.980;2023-03-05T06:41:15;17.40;;;7.30;;
76848;SDS011;65814;51.134;16.980;2023-03-05T06:43:44;14.30;;;7.10;;
76848;SDS011;65814;51.134;16.980;2023-03-05T06:46:18;17.50;;;6.60;;
76848;SDS011;65814;51.134;16.980;2023-03-05T06:48:46;15.80;;;6.80;;
76848;SDS011;65814;51.134;16.980;2023-03-05T06:53:44;17.00;;;6.00;;
76848;SDS011;65814;51.134;16.980;2023-03-05T06:56:15;18.40;;;7.60;;
76848;SDS011;65814;51.134;16.980;2023-03-05T06:58:42;18.10;;;8.10;;
76848;SDS011;65814;51.134;16.980;2023-03-05T07:01:11;16.00;;;6.50;;
76848;SDS011;65814;51.134;16.980;2023-03-05T07:03:38;13.60;;;6.30;;
76848;SDS011;65814;51.134;16.980;2023-03-05T07:06:06;12.90;;;5.60;;
76848;SDS011;65814;51.134;16.980;2023-03-05T07:08:34;19.50;;;7.10;;
76848;SDS011;65814;51.134;16.980;2023-03-05T07:11:01;17.60;;;7.00;;
76848;SDS011;65814;51.134;16.980;2023-03-05T07:13:28;17.60;;;6.20;;
76848;SDS011;65814;51.134;16.980;2023-03-05T07:15:55;14.30;;;8.50;;
76848;SDS011;65814;51.134;16.980;2023-03-05T07:18:21;16.00;;;6.40;;
76848;SDS011;65814;51.134;16.980;2023-03-05T07:20:48;20.10;;;6.30;;
76848;SDS011;65814;51.134;16.980;2023-03-05T07:23:15;18.30;;;7.60;;
76848;SDS011;65814;51.134;16.980;2023-03-05T07:25:41;14.30;;;6.30;;
76848;SDS011;65814;51.134;16.980;2023-03-05T07:28:08;14.30;;;6.40;;
76848;SDS011;65814;51.134;16.980;2023-03-05T07:30:35;16.30;;;4.90;;
76848;SDS011;65814;51.134;16.980;2023-03-05T07:35:28;12.00;;;4.60;;
76848;SDS011;65814;51.134;16.980;2023-03-05T07:37:55;19.30;;;5.30;;
76848;SDS011;65814;51.134;16.980;2023-03-05T07:42:48;8.10;;;4.00;;
76848;SDS011;65814;51.134;16.980;2023-03-05T07:45:15;14.20;;;4.20;;
76848;SDS011;65814;51.134;16.980;2023-03-05T07:47:42;14.40;;;4.10;;
76848;SDS011;65814;51.134;16.980;2023-03-05T07:50:08;11.10;;;4.70;;
76848;SDS011;65814;51.134;16.980;2023-03-05T07:52:35;11.70;;;4.90;;
76848;SDS011;65814;51.134;16.980;2023-03-05T07:55:02;12.10;;;3.90;;
76848;SDS011;65814;51.134;16.980;2023-03-05T07:57:29;7.60;;;3.20;;
76848;SDS011;65814;51.134;16.980;2023-03-05T07:59:55;14.80;;;3.50;;
76848;SDS011;65814;51.134;16.980;2023-03-05T08:02:22;9.70;;;3.30;;
76848;SDS011;65814;51.134;16.980;2023-03-05T08:04:48;16.40;;;3.60;;
76848;SDS011;65814;51.134;16.980;2023-03-05T08:07:15;8.70;;;2.90;;
76848;SDS011;65814;51.134;16.980;2023-03-05T08:09:42;8.40;;;3.00;;
76848;SDS011;65814;51.134;16.980;2023-03-05T08:12:08;6.30;;;2.30;;
76848;SDS011;65814;51.134;16.980;2023-03-05T08:14:35;7.90;;;2.40;;
76848;SDS011;65814;51.134;16.980;2023-03-05T08:17:03;6.30;;;2.60;;
76848;SDS011;65814;51.134;16.980;2023-03-05T08:19:30;3.80;;;1.50;;
76848;SDS011;65814;51.134;16.980;2023-03-05T08:21:57;7.40;;;2.30;;
76848;SDS011;65814;51.134;16.980;2023-03-05T08:24:24;6.30;;;2.00;;
76848;SDS011;65814;51.134;16.980;2023-03-05T08:26:54;5.90;;;2.90;;
76848;SDS011;65814;51.134;16.980;2023-03-05T08:29:23;8.70;;;2.60;;
76848;SDS011;65814;51.134;16.980;2023-03-05T08:31:50;6.60;;;2.40;;
76848;SDS011;65814;51.134;16.980;2023-03-05T08:34:19;6.40;;;2.90;;
76848;SDS011;65814;51.134;16.980;2023-03-05T08:36:46;6.40;;;3.90;;
76848;SDS011;65814;51.134;16.980;2023-03-05T08:41:39;6.90;;;3.20;;
76848;SDS011;65814;51.134;16.980;2023-03-05T08:44:06;10.40;;;3.70;;
76848;SDS011;65814;51.134;16.980;2023-03-05T08:46:33;11.00;;;4.20;;
76848;SDS011;65814;51.134;16.980;2023-03-05T08:48:59;11.60;;;3.50;;
76848;SDS011;65814;51.134;16.980;2023-03-05T08:51:26;12.50;;;4.00;;
76848;SDS011;65814;51.134;16.980;2023-03-05T08:53:54;9.90;;;3.50;;
76848;SDS011;65814;51.134;16.980;2023-03-05T08:56:23;9.80;;;3.40;;
76848;SDS011;65814;51.134;16.980;2023-03-05T08:58:51;9.10;;;3.90;;
76848;SDS011;65814;51.134;16.980;2023-03-05T09:01:18;11.70;;;3.30;;
76848;SDS011;65814;51.134;16.980;2023-03-05T09:03:44;8.60;;;4.00;;
76848;SDS011;65814;51.134;16.980;2023-03-05T09:06:11;9.90;;;3.60;;
76848;SDS011;65814;51.134;16.980;2023-03-05T09:11:07;9.80;;;4.30;;
76848;SDS011;65814;51.134;16.980;2023-03-05T09:13:35;9.90;;;4.50;;
76848;SDS011;65814;51.134;16.980;2023-03-05T09:18:30;11.40;;;4.40;;
76848;SDS011;65814;51.134;16.980;2023-03-05T09:20:57;8.90;;;4.50;;
76848;SDS011;65814;51.134;16.980;2023-03-05T09:23:24;8.20;;;3.80;;
76848;SDS011;65814;51.134;16.980;2023-03-05T09:25:50;12.80;;;4.20;;
76848;SDS011;65814;51.134;16.980;2023-03-05T09:28:17;11.40;;;4.60;;
76848;SDS011;65814;51.134;16.980;2023-03-05T09:30:43;9.30;;;3.80;;
76848;SDS011;65814;51.134;16.980;2023-03-05T09:33:10;9.40;;;4.30;;
76848;SDS011;65814;51.134;16.980;2023-03-05T09:35:36;11.70;;;4.90;;
76848;SDS011;65814;51.134;16.980;2023-03-05T09:38:03;10.80;;;4.30;;
76848;SDS011;65814;51.134;16.980;2023-03-05T09:40:37;7.70;;;4.80;;
76848;SDS011;65814;51.134;16.980;2023-03-05T09:51:08;9.30;;;4.10;;
76848;SDS011;65814;51.134;16.980;2023-03-05T09:53:43;12.40;;;4.00;;
76848;SDS011;65814;51.134;16.980;2023-03-05T09:56:14;7.60;;;3.60;;
76848;SDS011;65814;51.134;16.980;2023-03-05T10:01:44;10.40;;;4.20;;
76848;SDS011;65814;51.134;16.980;2023-03-05T10:04:13;18.40;;;4.80;;
76848;SDS011;65814;51.134;16.980;2023-03-05T10:09:55;11.80;;;4.30;;
76848;SDS011;65814;51.134;16.980;2023-03-05T10:12:39;8.60;;;4.10;;
76848;SDS011;65814;51.134;16.980;2023-03-05T10:15:14;7.50;;;3.20;;
76848;SDS011;65814;51.134;16.980;2023-03-05T10:20:21;14.30;;;4.60;;
76848;SDS011;65814;51.134;16.980;2023-03-05T10:23:08;10.10;;;3.10;;
76848;SDS011;65814;51.134;16.980;2023-03-05T10:26:51;6.90;;;3.10;;
76848;SDS011;65814;51.134;16.980;2023-03-05T10:31:42;4.20;;;2.40;;
76848;SDS011;65814;51.134;16.980;2023-03-05T10:45:20;11.90;;;3.20;;
76848;SDS011;65814;51.134;16.980;2023-03-05T10:47:58;9.10;;;3.30;;
76848;SDS011;65814;51.134;16.980;2023-03-05T10:50:35;8.60;;;3.10;;
76848;SDS011;65814;51.134;16.980;2023-03-05T10:55:46;9.80;;;3.80;;
76848;SDS011;65814;51.134;16.980;2023-03-05T10:58:15;9.70;;;3.40;;
76848;SDS011;65814;51.134;16.980;2023-03-05T11:03:54;10.50;;;3.70;;
76848;SDS011;65814;51.134;16.980;2023-03-05T11:11:38;7.80;;;4.20;;
76848;SDS011;65814;51.134;16.980;2023-03-05T11:14:07;9.20;;;4.00;;
76848;SDS011;65814;51.134;16.980;2023-03-05T11:16:48;10.90;;;5.10;;
76848;SDS011;65814;51.134;16.980;2023-03-05T11:19:20;7.40;;;3.70;;
76848;SDS011;65814;51.134;16.980;2023-03-05T11:25:03;14.30;;;5.00;;
76848;SDS011;65814;51.134;16.980;2023-03-05T11:27:37;10.90;;;5.00;;
76848;SDS011;65814;51.134;16.980;2023-03-05T11:30:18;11.90;;;5.10;;
76848;SDS011;65814;51.134;16.980;2023-03-05T11:33:08;12.50;;;4.70;;
76848;SDS011;65814;51.134;16.980;2023-03-05T11:35:45;14.10;;;6.30;;
76848;SDS011;65814;51.134;16.980;2023-03-05T11:38:18;13.30;;;6.00;;
76848;SDS011;65814;51.134;16.980;2023-03-05T11:40:47;10.80;;;5.50;;
76848;SDS011;65814;51.134;16.980;2023-03-05T11:45:41;13.60;;;5.60;;
76848;SDS011;65814;51.134;16.980;2023-03-05T11:48:17;12.10;;;5.70;;
76848;SDS011;65814;51.134;16.980;2023-03-05T11:50:48;15.30;;;5.50;;
76848;SDS011;65814;51.134;16.980;2023-03-05T11:53:28;13.70;;;6.00;;
76848;SDS011;65814;51.134;16.980;2023-03-05T11:55:58;12.00;;;5.30;;
76848;SDS011;65814;51.134;16.980;2023-03-05T12:01:00;9.70;;;5.20;;
76848;SDS011;65814;51.134;16.980;2023-03-05T12:03:30;11.60;;;5.70;;
76848;SDS011;65814;51.134;16.980;2023-03-05T12:06:03;9.90;;;5.40;;
76848;SDS011;65814;51.134;16.980;2023-03-05T12:08:41;14.80;;;6.00;;
76848;SDS011;65814;51.134;16.980;2023-03-05T12:11:15;11.20;;;6.80;;
76848;SDS011;65814;51.134;16.980;2023-03-05T12:13:49;10.20;;;5.90;;
76848;SDS011;65814;51.134;16.980;2023-03-05T12:18:59;11.70;;;6.60;;
76848;SDS011;65814;51.134;16.980;2023-03-05T12:21:36;11.50;;;5.80;;
76848;SDS011;65814;51.134;16.980;2023-03-05T12:26:55;15.30;;;6.10;;
76848;SDS011;65814;51.134;16.980;2023-03-05T12:31:58;12.60;;;6.40;;
76848;SDS011;65814;51.134;16.980;2023-03-05T12:37:03;16.00;;;6.10;;
76848;SDS011;65814;51.134;16.980;2023-03-05T12:39:44;10.20;;;5.30;;
76848;SDS011;65814;51.134;16.980;2023-03-05T12:47:43;16.90;;;6.20;;
76848;SDS011;65814;51.134;16.980;2023-03-05T12:55:35;9.50;;;4.10;;
76848;SDS011;65814;51.134;16.980;2023-03-05T12:58:10;8.70;;;5.20;;
76848;SDS011;65814;51.134;16.980;2023-03-05T13:03:26;9.10;;;4.60;;
76848;SDS011;65814;51.134;16.980;2023-03-05T13:05:57;11.20;;;4.00;;
76848;SDS011;65814;51.134;16.980;2023-03-05T13:08:29;9.10;;;3.60;;
76848;SDS011;65814;51.134;16.980;2023-03-05T13:10:58;9.70;;;3.90;;
76848;SDS011;65814;51.134;16.980;2023-03-05T13:13:26;11.10;;;4.40;;
76848;SDS011;65814;51.134;16.980;2023-03-05T13:15:54;10.10;;;4.90;;
76848;SDS011;65814;51.134;16.980;2023-03-05T13:18:26;9.40;;;4.80;;
76848;SDS011;65814;51.134;16.980;2023-03-05T13:21:13;11.80;;;4.20;;
76848;SDS011;65814;51.134;16.980;2023-03-05T13:23:49;9.10;;;3.80;;
76848;SDS011;65814;51.134;16.980;2023-03-05T13:26:24;10.20;;;4.70;;
76848;SDS011;65814;51.134;16.980;2023-03-05T13:29:05;9.00;;;3.90;;
76848;SDS011;65814;51.134;16.980;2023-03-05T13:31:32;9.30;;;4.10;;
76848;SDS011;65814;51.134;16.980;2023-03-05T13:34:07;7.80;;;3.80;;
76848;SDS011;65814;51.134;16.980;2023-03-05T13:36:39;7.70;;;4.40;;
76848;SDS011;65814;51.134;16.980;2023-03-05T13:39:06;6.30;;;3.80;;
76848;SDS011;65814;51.134;16.980;2023-03-05T13:41:33;6.70;;;3.90;;
76848;SDS011;65814;51.134;16.980;2023-03-05T13:44:00;7.40;;;3.60;;
76848;SDS011;65814;51.134;16.980;2023-03-05T13:46:31;8.60;;;3.80;;
76848;SDS011;65814;51.134;16.980;2023-03-05T13:49:16;9.30;;;4.40;;
76848;SDS011;65814;51.134;16.980;2023-03-05T13:51:55;9.80;;;6.00;;
76848;SDS011;65814;51.134;16.980;2023-03-05T13:54:23;12.70;;;4.90;;
76848;SDS011;65814;51.134;16.980;2023-03-05T13:56:57;10.60;;;5.00;;
76848;SDS011;65814;51.134;16.980;2023-03-05T13:59:32;8.40;;;4.20;;
76848;SDS011;65814;51.134;16.980;2023-03-05T14:02:13;9.30;;;4.70;;
76848;SDS011;65814;51.134;16.980;2023-03-05T14:04:42;9.20;;;4.20;;
76848;SDS011;65814;51.134;16.980;2023-03-05T14:09:49;7.20;;;4.30;;
76848;SDS011;65814;51.134;16.980;2023-03-05T14:12:34;13.10;;;3.70;;
76848;SDS011;65814;51.134;16.980;2023-03-05T14:15:21;10.80;;;5.40;;
76848;SDS011;65814;51.134;16.980;2023-03-05T14:20:34;7.30;;;4.30;;
76848;SDS011;65814;51.134;16.980;2023-03-05T14:23:01;7.50;;;4.70;;
76848;SDS011;65814;51.134;16.980;2023-03-05T14:26:09;10.00;;;4.50;;
76848;SDS011;65814;51.134;16.980;2023-03-05T14:28:49;9.90;;;4.70;;
76848;SDS011;65814;51.134;16.980;2023-03-05T14:31:17;8.40;;;4.90;;
76848;SDS011;65814;51.134;16.980;2023-03-05T14:36:11;11.00;;;5.00;;
76848;SDS011;65814;51.134;16.980;2023-03-05T14:38:40;10.70;;;4.40;;
76848;SDS011;65814;51.134;16.980;2023-03-05T14:43:55;10.80;;;5.30;;
76848;SDS011;65814;51.134;16.980;2023-03-05T14:46:21;13.50;;;5.50;;
76848;SDS011;65814;51.134;16.980;2023-03-05T14:48:48;12.00;;;4.50;;
76848;SDS011;65814;51.134;16.980;2023-03-05T14:51:15;8.60;;;4.20;;
76848;SDS011;65814;51.134;16.980;2023-03-05T14:53:43;8.00;;;5.00;;
76848;SDS011;65814;51.134;16.980;2023-03-05T14:56:17;10.40;;;5.30;;
76848;SDS011;65814;51.134;16.980;2023-03-05T14:58:48;15.70;;;4.90;;
76848;SDS011;65814;51.134;16.980;2023-03-05T15:01:15;8.00;;;4.90;;
76848;SDS011;65814;51.134;16.980;2023-03-05T15:03:42;8.70;;;5.00;;
76848;SDS011;65814;51.134;16.980;2023-03-05T15:06:15;8.80;;;5.20;;
76848;SDS011;65814;51.134;16.980;2023-03-05T15:08:52;10.00;;;4.50;;
76848;SDS011;65814;51.134;16.980;2023-03-05T15:11:19;8.90;;;4.60;;
76848;SDS011;65814;51.134;16.980;2023-03-05T15:13:48;9.00;;;4.20;;
76848;SDS011;65814;51.134;16.980;2023-03-05T15:16:18;8.70;;;4.10;;
76848;SDS011;65814;51.134;16.980;2023-03-05T15:18:46;7.00;;;4.30;;
76848;SDS011;65814;51.134;16.980;2023-03-05T15:21:13;10.40;;;4.50;;
76848;SDS011;65814;51.134;16.980;2023-03-05T15:23:40;9.90;;;5.10;;
76848;SDS011;65814;51.134;16.980;2023-03-05T15:26:07;14.60;;;5.60;;
76848;SDS011;65814;51.134;16.980;2023-03-05T15:28:35;10.30;;;5.30;;
76848;SDS011;65814;51.134;16.980;2023-03-05T15:31:03;9.20;;;5.70;;
76848;SDS011;65814;51.134;16.980;2023-03-05T15:33:31;10.30;;;5.50;;
76848;SDS011;65814;51.134;16.980;2023-03-05T15:35:58;11.20;;;5.60;;
76848;SDS011;65814;51.134;16.980;2023-03-05T15:38:25;12.00;;;5.80;;
76848;SDS011;65814;51.134;16.980;2023-03-05T15:40:52;14.50;;;5.50;;
76848;SDS011;65814;51.134;16.980;2023-03-05T15:43:18;11.20;;;5.70;;
76848;SDS011;65814;51.134;16.980;2023-03-05T15:45:45;7.20;;;4.40;;
76848;SDS011;65814;51.134;16.980;2023-03-05T15:48:12;8.90;;;5.10;;
76848;SDS011;65814;51.134;16.980;2023-03-05T15:53:09;10.40;;;4.70;;
76848;SDS011;65814;51.134;16.980;2023-03-05T15:55:38;12.20;;;4.60;;
76848;SDS011;65814;51.134;16.980;2023-03-05T15:58:05;9.80;;;4.40;;
76848;SDS011;65814;51.134;16.980;2023-03-05T16:00:32;11.30;;;4.60;;
76848;SDS011;65814;51.134;16.980;2023-03-05T16:03:02;10.10;;;4.70;;
76848;SDS011;65814;51.134;16.980;2023-03-05T16:05:29;11.60;;;4.60;;
76848;SDS011;65814;51.134;16.980;2023-03-05T16:07:56;10.80;;;4.80;;
76848;SDS011;65814;51.134;16.980;2023-03-05T16:10:24;13.30;;;5.70;;
76848;SDS011;65814;51.134;16.980;2023-03-05T16:13:02;9.80;;;5.50;;
76848;SDS011;65814;51.134;16.980;2023-03-05T16:15:36;13.20;;;7.60;;
76848;SDS011;65814;51.134;16.980;2023-03-05T16:18:05;10.10;;;4.80;;
76848;SDS011;65814;51.134;16.980;2023-03-05T16:20:33;13.10;;;4.80;;
76848;SDS011;65814;51.134;16.980;2023-03-05T16:23:01;10.20;;;5.50;;
76848;SDS011;65814;51.134;16.980;2023-03-05T16:25:29;9.50;;;5.50;;
76848;SDS011;65814;51.134;16.980;2023-03-05T16:27:56;11.10;;;5.60;;
76848;SDS011;65814;51.134;16.980;2023-03-05T16:30:23;10.10;;;5.50;;
76848;SDS011;65814;51.134;16.980;2023-03-05T16:32:49;10.60;;;5.40;;
76848;SDS011;65814;51.134;16.980;2023-03-05T16:35:19;10.90;;;5.70;;
76848;SDS011;65814;51.134;16.980;2023-03-05T16:37:47;14.70;;;6.40;;
76848;SDS011;65814;51.134;16.980;2023-03-05T16:40:13;12.20;;;6.50;;
76848;SDS011;65814;51.134;16.980;2023-03-05T16:42:40;20.90;;;8.60;;
76848;SDS011;65814;51.134;16.980;2023-03-05T16:45:08;34.50;;;11.80;;
76848;SDS011;65814;51.134;16.980;2023-03-05T16:47:36;13.50;;;6.80;;